createdAt,value
2018-12-12T00:00:23.539Z,2.40
2018-12-12T00:02:52.071Z,2.40
2018-12-12T00:05:20.511Z,2.30
2018-12-12T00:07:48.914Z,2.40
2018-12-12T00:10:20.502Z,2.30
2018-12-12T00:12:49.647Z,2.40
2018-12-12T00:15:19.306Z,2.40
2018-12-12T00:17:48.575Z,2.30
2018-12-12T00:20:16.998Z,2.40
2018-12-12T00:22:45.429Z,2.30
2018-12-12T00:25:13.800Z,2.30
2018-12-12T00:27:42.305Z,2.40
2018-12-12T00:30:10.968Z,2.30
2018-12-12T00:32:39.480Z,2.30
2018-12-12T00:35:07.994Z,2.30
2018-12-12T00:37:36.494Z,2.30
2018-12-12T00:40:05.192Z,2.30
2018-12-12T00:42:33.712Z,2.30
2018-12-12T00:45:02.112Z,2.30
2018-12-12T00:47:30.543Z,2.30
2018-12-12T00:49:59.003Z,2.30
2018-12-12T00:52:27.392Z,2.30
2018-12-12T00:54:55.972Z,2.30
2018-12-12T00:57:24.864Z,2.30
2018-12-12T00:59:53.289Z,2.30
2018-12-12T01:02:21.701Z,2.30
2018-12-12T01:04:50.271Z,2.30
2018-12-12T01:07:18.811Z,2.30
2018-12-12T01:09:47.225Z,2.30
2018-12-12T01:12:15.749Z,2.20
2018-12-12T01:14:44.165Z,2.20
2018-12-12T01:17:12.577Z,2.00
2018-12-12T01:19:40.989Z,2.00
2018-12-12T01:22:09.387Z,2.00
2018-12-12T01:24:37.803Z,1.90
2018-12-12T01:27:06.352Z,1.90
2018-12-12T01:29:34.760Z,1.80
2018-12-12T01:32:03.331Z,1.80
2018-12-12T01:34:31.717Z,1.90
2018-12-12T01:37:00.436Z,1.90
2018-12-12T01:39:28.820Z,1.80
2018-12-12T01:41:57.228Z,1.80
2018-12-12T01:44:25.663Z,1.80
2018-12-12T01:46:54.360Z,1.80
2018-12-12T01:49:22.774Z,1.80
2018-12-12T01:51:51.193Z,1.80
2018-12-12T01:54:19.732Z,1.70
2018-12-12T01:56:48.118Z,1.80
2018-12-12T01:59:16.544Z,1.70
2018-12-12T02:01:44.938Z,1.70
2018-12-12T02:04:13.602Z,1.70
2018-12-12T02:06:42.010Z,1.60
2018-12-12T02:09:10.469Z,1.60
2018-12-12T02:11:38.867Z,1.60
2018-12-12T02:14:07.266Z,1.60
2018-12-12T02:16:35.677Z,1.60
2018-12-12T02:19:04.075Z,1.60
2018-12-12T02:21:32.495Z,1.60
2018-12-12T02:24:00.904Z,1.60
2018-12-12T02:26:29.327Z,1.60
2018-12-12T02:28:57.812Z,1.60
2018-12-12T02:31:26.252Z,1.50
2018-12-12T02:33:54.659Z,1.50
2018-12-12T02:36:23.081Z,1.50
2018-12-12T02:38:51.504Z,1.40
2018-12-12T02:41:19.916Z,1.30
2018-12-12T02:43:48.327Z,1.30
2018-12-12T02:46:16.713Z,1.20
2018-12-12T02:48:45.152Z,1.20
2018-12-12T02:51:13.574Z,1.20
2018-12-12T02:53:41.996Z,1.20
2018-12-12T02:56:10.421Z,1.20
2018-12-12T02:58:38.806Z,1.20
2018-12-12T03:01:07.251Z,1.20
2018-12-12T03:03:35.651Z,1.20
2018-12-12T03:06:04.083Z,1.10
2018-12-12T03:08:32.485Z,1.10
2018-12-12T03:11:00.994Z,1.10
2018-12-12T03:13:29.392Z,1.10
2018-12-12T03:15:57.855Z,1.20
2018-12-12T03:18:26.239Z,1.20
2018-12-12T03:20:54.656Z,1.10
2018-12-12T03:23:23.079Z,1.10
2018-12-12T03:25:51.465Z,1.00
2018-12-12T03:28:19.868Z,1.00
2018-12-12T03:30:48.275Z,1.00
2018-12-12T03:33:16.699Z,0.90
2018-12-12T03:35:45.085Z,1.00
2018-12-12T03:38:13.493Z,1.00
2018-12-12T03:40:42.316Z,0.90
2018-12-12T03:43:10.723Z,0.90
2018-12-12T03:45:39.127Z,0.90
2018-12-12T03:48:07.543Z,0.90
2018-12-12T03:50:35.967Z,0.90
2018-12-12T03:53:04.369Z,1.00
2018-12-12T03:55:32.791Z,1.00
2018-12-12T03:58:01.202Z,1.00
2018-12-12T04:00:29.638Z,1.00
2018-12-12T04:02:58.036Z,1.00
2018-12-12T04:05:26.552Z,1.00
2018-12-12T04:07:54.951Z,1.00
2018-12-12T04:10:23.368Z,1.00
2018-12-12T04:12:51.789Z,1.00
2018-12-12T04:15:20.334Z,1.00
2018-12-12T04:17:48.752Z,1.00
2018-12-12T04:20:17.159Z,1.00
2018-12-12T04:22:45.580Z,1.00
2018-12-12T04:25:14.033Z,0.90
2018-12-12T04:27:42.473Z,1.00
2018-12-12T04:30:10.982Z,1.00
2018-12-12T04:32:39.398Z,1.00
2018-12-12T04:35:08.693Z,1.00
2018-12-12T04:37:37.107Z,1.00
2018-12-12T04:40:06.102Z,1.00
2018-12-12T04:42:34.515Z,1.00
2018-12-12T04:45:02.930Z,1.00
2018-12-12T04:47:31.348Z,1.00
2018-12-12T04:49:59.788Z,1.00
2018-12-12T04:52:28.192Z,1.00
2018-12-12T04:54:56.607Z,1.00
2018-12-12T04:57:25.037Z,1.00
2018-12-12T04:59:53.456Z,1.00
2018-12-12T05:02:26.396Z,1.00
2018-12-12T05:04:55.780Z,1.00
2018-12-12T05:07:24.523Z,1.00
2018-12-12T05:09:53.146Z,1.00
2018-12-12T05:12:21.552Z,1.00
2018-12-12T05:14:49.969Z,0.90
2018-12-12T05:17:18.393Z,0.90
2018-12-12T05:19:46.787Z,0.90
2018-12-12T05:22:15.179Z,0.90
2018-12-12T05:24:43.569Z,0.90
2018-12-12T05:27:12.015Z,0.90
2018-12-12T05:29:40.457Z,0.90
2018-12-12T05:32:08.909Z,0.90
2018-12-12T05:34:37.324Z,1.00
2018-12-12T05:37:05.726Z,1.00
2018-12-12T05:39:34.135Z,1.00
2018-12-12T05:42:02.561Z,1.00
2018-12-12T05:44:30.996Z,1.00
2018-12-12T05:46:59.412Z,1.00
2018-12-12T05:49:27.900Z,1.00
2018-12-12T05:51:56.300Z,0.90
2018-12-12T05:54:24.714Z,1.00
2018-12-12T05:56:53.113Z,1.00
2018-12-12T05:59:21.525Z,1.00
2018-12-12T06:01:49.927Z,1.00
2018-12-12T06:04:18.372Z,0.90
2018-12-12T06:06:46.784Z,1.00
2018-12-12T06:09:15.170Z,1.00
2018-12-12T06:11:43.781Z,1.00
2018-12-12T06:14:12.174Z,1.00
2018-12-12T06:16:40.586Z,1.00
2018-12-12T06:19:08.991Z,1.00
2018-12-12T06:21:37.404Z,0.90
2018-12-12T06:24:05.928Z,0.90
2018-12-12T06:26:37.372Z,0.90
2018-12-12T06:29:04.903Z,0.90
2018-12-12T06:31:33.317Z,0.90
2018-12-12T06:34:01.699Z,1.00
2018-12-12T06:36:30.135Z,0.90
2018-12-12T06:38:58.533Z,0.90
2018-12-12T06:41:26.937Z,0.90
2018-12-12T06:43:55.347Z,0.90
2018-12-12T06:46:23.726Z,0.90
2018-12-12T06:48:52.191Z,1.10
2018-12-12T06:51:20.662Z,1.10
2018-12-12T06:53:49.180Z,1.10
2018-12-12T06:56:17.579Z,1.10
2018-12-12T06:58:45.993Z,1.00
2018-12-12T07:01:14.512Z,1.10
2018-12-12T07:03:42.958Z,1.00
2018-12-12T07:06:11.378Z,1.00
2018-12-12T07:08:39.783Z,1.00
2018-12-12T07:11:08.195Z,1.00
2018-12-12T07:13:36.667Z,1.00
2018-12-12T07:16:05.090Z,1.00
2018-12-12T07:18:33.503Z,1.00
2018-12-12T07:21:02.020Z,1.00
2018-12-12T07:23:30.400Z,1.00
2018-12-12T07:25:58.813Z,1.00
2018-12-12T07:28:27.241Z,1.00
2018-12-12T07:30:55.663Z,1.00
2018-12-12T07:33:24.070Z,1.00
2018-12-12T07:35:52.471Z,1.00
2018-12-12T07:38:20.918Z,1.00
2018-12-12T07:40:49.326Z,1.00
2018-12-12T07:43:17.747Z,1.00
2018-12-12T07:45:46.135Z,1.10
2018-12-12T07:48:14.543Z,1.10
2018-12-12T07:50:44.096Z,1.10
2018-12-12T07:53:12.723Z,1.10
2018-12-12T07:55:41.245Z,1.10
2018-12-12T07:58:09.667Z,1.10
2018-12-12T08:00:38.151Z,1.10
2018-12-12T08:03:06.717Z,1.10
2018-12-12T08:05:35.252Z,1.10
2018-12-12T08:08:03.769Z,1.10
2018-12-12T08:10:32.173Z,1.10
2018-12-12T08:13:00.619Z,1.10
2018-12-12T08:15:29.093Z,1.10
2018-12-12T08:17:57.482Z,1.10
2018-12-12T08:20:26.025Z,1.10
2018-12-12T08:22:55.636Z,1.20
2018-12-12T08:25:24.395Z,1.20
2018-12-12T08:27:52.807Z,1.20
2018-12-12T08:30:21.219Z,1.30
2018-12-12T08:32:49.737Z,1.30
2018-12-12T08:35:18.148Z,1.20
2018-12-12T08:37:46.559Z,1.20
2018-12-12T08:40:15.141Z,1.30
2018-12-12T08:42:43.545Z,1.30
2018-12-12T08:45:11.936Z,1.30
2018-12-12T08:47:40.368Z,1.30
2018-12-12T08:50:09.036Z,1.30
2018-12-12T08:52:37.484Z,1.30
2018-12-12T08:55:06.288Z,1.40
2018-12-12T08:57:34.838Z,1.40
2018-12-12T09:00:03.551Z,1.40
2018-12-12T09:02:32.092Z,1.40
2018-12-12T09:05:00.492Z,1.40
2018-12-12T09:07:28.904Z,1.40
2018-12-12T09:09:57.343Z,1.50
2018-12-12T09:12:25.749Z,1.40
2018-12-12T09:14:54.138Z,1.50
2018-12-12T09:17:22.554Z,1.40
2018-12-12T09:19:50.968Z,1.40
2018-12-12T09:22:19.382Z,1.40
2018-12-12T09:24:47.854Z,1.50
2018-12-12T09:27:16.236Z,1.50
2018-12-12T09:29:44.714Z,1.50
2018-12-12T09:32:13.117Z,1.60
2018-12-12T09:34:41.582Z,1.60
2018-12-12T09:37:10.000Z,1.60
2018-12-12T09:39:38.583Z,1.70
2018-12-12T09:42:07.148Z,1.60
2018-12-12T09:44:35.872Z,1.70
2018-12-12T09:47:04.500Z,1.70
2018-12-12T09:49:32.984Z,1.70
2018-12-12T09:52:01.480Z,1.60
2018-12-12T09:54:29.889Z,1.60
2018-12-12T09:56:58.326Z,1.60
2018-12-12T09:59:26.794Z,1.50
2018-12-12T10:01:55.194Z,1.60
2018-12-12T10:04:23.600Z,1.60
2018-12-12T10:06:52.004Z,1.60
2018-12-12T10:09:20.470Z,1.60
2018-12-12T10:11:48.927Z,1.60
2018-12-12T10:14:17.364Z,1.60
2018-12-12T10:16:45.779Z,1.60
2018-12-12T10:19:14.207Z,1.60
2018-12-12T10:21:42.805Z,1.60
2018-12-12T10:24:11.580Z,1.70
2018-12-12T10:26:40.129Z,1.70
2018-12-12T10:29:08.696Z,1.70
2018-12-12T10:31:37.130Z,1.70
2018-12-12T10:34:05.656Z,1.70
2018-12-12T10:36:35.262Z,1.70
2018-12-12T10:39:07.000Z,1.80
2018-12-12T10:41:36.180Z,1.70
2018-12-12T10:44:04.602Z,1.80
2018-12-12T10:46:33.034Z,1.70
2018-12-12T10:49:01.598Z,1.70
2018-12-12T10:51:30.054Z,1.70
2018-12-12T10:53:58.561Z,1.70
2018-12-12T10:56:27.005Z,1.70
2018-12-12T10:58:55.439Z,1.70
2018-12-12T11:01:29.707Z,1.70
2018-12-12T11:03:58.267Z,1.70
2018-12-12T11:06:26.677Z,1.70
2018-12-12T11:08:55.075Z,1.70
2018-12-12T11:11:23.459Z,1.70
2018-12-12T11:13:51.897Z,1.80
2018-12-12T11:16:20.280Z,1.70
2018-12-12T11:18:48.697Z,1.80
2018-12-12T11:21:17.245Z,1.80
2018-12-12T11:23:45.653Z,1.80
2018-12-12T11:26:14.189Z,1.80
2018-12-12T11:28:42.633Z,1.90
2018-12-12T11:31:11.033Z,1.90
2018-12-12T11:33:39.479Z,2.00
2018-12-12T11:36:08.018Z,2.00
2018-12-12T11:38:36.407Z,1.90
2018-12-12T11:41:05.472Z,2.00
2018-12-12T11:43:33.987Z,2.00
2018-12-12T11:46:02.796Z,2.00
2018-12-12T11:48:31.239Z,2.00
2018-12-12T11:50:59.648Z,2.10
2018-12-12T11:53:28.048Z,2.10
2018-12-12T11:55:56.480Z,2.00
2018-12-12T11:58:25.113Z,2.00
2018-12-12T12:00:53.531Z,2.10
2018-12-12T12:03:21.958Z,2.10
2018-12-12T12:05:50.356Z,2.10
2018-12-12T12:08:25.641Z,2.10
2018-12-12T12:10:54.052Z,2.10
2018-12-12T12:13:22.494Z,2.10
2018-12-12T12:15:50.903Z,2.00
2018-12-12T12:18:19.434Z,2.00
2018-12-12T12:20:47.847Z,2.10
2018-12-12T12:23:16.315Z,2.10
2018-12-12T12:25:44.732Z,2.10
2018-12-12T12:28:13.177Z,2.00
2018-12-12T12:30:41.573Z,2.10
2018-12-12T12:33:09.999Z,2.10
2018-12-12T12:35:38.423Z,2.10
2018-12-12T12:38:06.833Z,2.10
2018-12-12T12:40:35.265Z,2.00
2018-12-12T12:43:03.863Z,2.10
2018-12-12T12:45:32.443Z,2.10
2018-12-12T12:48:00.945Z,2.10
2018-12-12T12:50:29.531Z,2.10
2018-12-12T12:52:57.960Z,2.10
2018-12-12T12:55:26.489Z,2.10
2018-12-12T12:57:54.905Z,2.10
2018-12-12T13:00:23.331Z,2.00
2018-12-12T13:02:51.732Z,2.00
2018-12-12T13:05:20.143Z,2.00
2018-12-12T13:07:48.626Z,2.10
2018-12-12T13:10:17.200Z,2.10
2018-12-12T13:12:46.324Z,2.10
2018-12-12T13:15:15.247Z,2.20
2018-12-12T13:17:43.801Z,2.50
2018-12-12T13:20:12.414Z,2.30
2018-12-12T13:22:40.837Z,2.30
2018-12-12T13:25:09.382Z,2.30
2018-12-12T13:27:37.840Z,2.30
2018-12-12T13:30:06.521Z,2.30
2018-12-12T13:32:34.949Z,2.20
2018-12-12T13:35:03.377Z,2.20
2018-12-12T13:37:31.813Z,2.20
2018-12-12T13:40:00.295Z,2.30
2018-12-12T13:42:28.721Z,2.10
2018-12-12T13:44:57.137Z,2.10
2018-12-12T13:47:25.551Z,2.10
2018-12-12T13:49:55.225Z,2.20
2018-12-12T13:52:23.942Z,2.20
2018-12-12T13:54:52.369Z,2.10
2018-12-12T13:57:20.919Z,2.10
2018-12-12T13:59:49.479Z,2.10
2018-12-12T14:02:17.941Z,2.10
2018-12-12T14:04:46.351Z,2.00
2018-12-12T14:07:14.771Z,2.00
2018-12-12T14:09:43.198Z,2.00
2018-12-12T14:12:17.092Z,2.00
2018-12-12T14:14:42.139Z,2.00
2018-12-12T14:17:10.523Z,1.90
2018-12-12T14:19:45.393Z,1.90
2018-12-12T14:22:13.855Z,2.00
2018-12-12T14:24:42.266Z,1.90
2018-12-12T14:27:10.712Z,1.90
2018-12-12T14:29:39.173Z,1.90
2018-12-12T14:32:07.687Z,1.90
2018-12-12T14:34:36.228Z,1.80
2018-12-12T14:37:04.788Z,1.80
2018-12-12T14:39:33.200Z,1.80
2018-12-12T14:42:01.662Z,1.80
2018-12-12T14:44:30.064Z,1.70
2018-12-12T14:46:58.542Z,1.70
2018-12-12T14:49:27.026Z,1.70
2018-12-12T14:51:55.504Z,1.60
2018-12-12T14:54:23.977Z,1.70
2018-12-12T14:56:52.440Z,1.70
2018-12-12T14:59:20.841Z,1.70
2018-12-12T15:01:49.286Z,1.70
2018-12-12T15:04:17.716Z,1.70
2018-12-12T15:06:46.147Z,1.70
2018-12-12T15:09:14.609Z,1.70
2018-12-12T15:11:43.049Z,1.70
2018-12-12T15:14:11.563Z,1.70
2018-12-12T15:16:40.072Z,1.60
2018-12-12T15:19:08.671Z,1.60
2018-12-12T15:21:37.142Z,1.70
2018-12-12T15:24:05.591Z,1.60
2018-12-12T15:26:34.148Z,1.70
2018-12-12T15:29:02.562Z,1.70
2018-12-12T15:31:30.978Z,1.70
2018-12-12T15:33:59.413Z,1.70
2018-12-12T15:36:27.842Z,1.70
2018-12-12T15:38:56.336Z,1.70
2018-12-12T15:41:26.090Z,1.70
2018-12-12T15:43:54.533Z,1.70
2018-12-12T15:46:22.996Z,1.80
2018-12-12T15:48:51.420Z,1.80
2018-12-12T15:51:19.917Z,1.90
2018-12-12T15:53:48.327Z,1.90
2018-12-12T15:56:16.873Z,1.80
2018-12-12T15:58:48.642Z,1.90
2018-12-12T16:01:17.078Z,1.80
2018-12-12T16:03:45.547Z,1.80
2018-12-12T16:06:14.115Z,1.70
2018-12-12T16:08:42.555Z,1.70
2018-12-12T16:11:11.050Z,1.70
2018-12-12T16:13:39.538Z,1.60
2018-12-12T16:16:08.022Z,1.60
2018-12-12T16:18:36.563Z,1.60
2018-12-12T16:21:05.173Z,1.70
2018-12-12T16:23:33.665Z,1.60
2018-12-12T16:26:02.247Z,1.50
2018-12-12T16:28:30.771Z,1.50
2018-12-12T16:30:59.357Z,1.40
2018-12-12T16:33:27.867Z,1.50
2018-12-12T16:35:57.329Z,1.50
2018-12-12T16:38:25.865Z,1.50
2018-12-12T16:40:55.039Z,1.50
2018-12-12T16:43:23.643Z,1.40
2018-12-12T16:45:52.147Z,1.40
2018-12-12T16:48:21.169Z,1.30
2018-12-12T16:50:49.789Z,1.30
2018-12-12T16:53:18.369Z,1.40
2018-12-12T16:55:46.873Z,1.40
2018-12-12T16:58:15.401Z,1.50
2018-12-12T17:00:44.336Z,1.40
2018-12-12T17:03:17.101Z,1.50
2018-12-12T17:05:45.623Z,1.50
2018-12-12T17:08:14.655Z,1.50
2018-12-12T17:10:43.214Z,1.40
2018-12-12T17:13:11.791Z,1.30
2018-12-12T17:15:40.509Z,1.30
2018-12-12T17:18:09.535Z,1.30
2018-12-12T17:20:38.057Z,1.30
2018-12-12T17:23:06.521Z,1.30
2018-12-12T17:25:35.053Z,1.20
2018-12-12T17:28:04.567Z,1.30
2018-12-12T17:30:33.061Z,1.30
2018-12-12T17:33:01.899Z,1.30
2018-12-12T17:35:30.409Z,1.30
2018-12-12T17:37:58.910Z,1.20
2018-12-12T17:40:27.633Z,1.20
2018-12-12T17:42:56.590Z,1.20
2018-12-12T17:45:25.136Z,1.20
2018-12-12T17:47:53.672Z,1.20
2018-12-12T17:50:22.163Z,1.20
2018-12-12T17:52:50.687Z,1.20
2018-12-12T17:55:19.171Z,1.20
2018-12-12T17:57:50.130Z,1.10
2018-12-12T18:00:18.666Z,1.10
2018-12-12T18:02:47.242Z,1.00
2018-12-12T18:05:15.834Z,1.00
2018-12-12T18:07:44.423Z,1.00
2018-12-12T18:10:13.355Z,0.90
2018-12-12T18:12:42.484Z,1.00
2018-12-12T18:15:11.704Z,1.10
2018-12-12T18:17:40.212Z,1.10
2018-12-12T18:20:08.965Z,0.90
2018-12-12T18:22:37.506Z,0.90
2018-12-12T18:27:37.604Z,0.80
2018-12-12T18:30:07.277Z,1.00
2018-12-12T18:32:36.270Z,1.10
2018-12-12T18:35:05.134Z,1.00
2018-12-12T18:40:07.451Z,1.10
2018-12-12T18:42:36.623Z,1.10
2018-12-12T18:45:06.088Z,1.20
2018-12-12T18:47:34.633Z,1.10
2018-12-12T18:50:03.314Z,1.00
2018-12-12T18:52:32.354Z,1.00
2018-12-12T18:55:01.524Z,1.00
2018-12-12T18:57:31.692Z,0.90
2018-12-12T19:00:00.337Z,0.90
2018-12-12T19:02:29.164Z,0.90
2018-12-12T19:04:58.042Z,0.90
2018-12-12T19:07:26.557Z,0.90
2018-12-12T19:12:29.732Z,0.90
2018-12-12T19:15:02.836Z,1.00
2018-12-12T19:17:31.772Z,1.00
2018-12-12T19:20:02.754Z,1.00
2018-12-12T19:22:36.061Z,1.00
2018-12-12T19:25:06.191Z,1.00
2018-12-12T19:27:36.844Z,1.00
2018-12-12T19:30:07.410Z,1.10
2018-12-12T19:32:36.604Z,1.10
2018-12-12T19:35:06.454Z,1.10
2018-12-12T19:37:35.360Z,1.10
2018-12-12T19:40:04.879Z,1.20
2018-12-12T19:42:34.814Z,1.10
2018-12-12T19:45:03.762Z,1.10
2018-12-12T19:47:32.655Z,1.20
2018-12-12T19:50:01.907Z,1.20
2018-12-12T19:52:30.443Z,1.20
2018-12-12T19:54:59.515Z,1.20
2018-12-12T19:57:28.081Z,1.20
2018-12-12T19:59:57.719Z,1.40
2018-12-12T20:02:27.797Z,1.40
2018-12-12T20:04:57.650Z,1.40
2018-12-12T20:07:27.415Z,1.40
2018-12-12T20:12:28.737Z,1.50
2018-12-12T20:14:57.912Z,1.40
2018-12-12T20:17:27.844Z,1.50
2018-12-12T20:19:56.869Z,1.40
2018-12-12T20:22:25.463Z,1.60
2018-12-12T20:24:54.060Z,1.50
2018-12-12T20:27:22.799Z,1.60
2018-12-12T20:29:52.740Z,1.60
2018-12-12T20:32:22.464Z,1.60
2018-12-12T20:34:51.088Z,1.60
2018-12-12T20:37:20.948Z,1.50
2018-12-12T20:39:50.600Z,1.50
2018-12-12T20:42:19.942Z,1.50
2018-12-12T20:44:48.606Z,1.50
2018-12-12T20:47:18.416Z,1.60
2018-12-12T20:49:47.567Z,1.70
2018-12-12T20:52:16.386Z,1.70
2018-12-12T20:57:16.421Z,1.70
2018-12-12T20:59:45.920Z,1.70
2018-12-12T21:02:16.527Z,1.70
2018-12-12T21:04:45.487Z,1.60
2018-12-12T21:07:15.082Z,1.60
2018-12-12T21:09:43.790Z,1.60
2018-12-12T21:12:13.072Z,1.70
2018-12-12T21:17:14.189Z,1.60
2018-12-12T21:19:43.062Z,1.70
2018-12-12T21:22:12.001Z,1.70
2018-12-12T21:24:40.550Z,1.70
2018-12-12T21:27:09.503Z,1.70
2018-12-12T21:29:39.578Z,1.60
2018-12-12T21:32:08.155Z,1.60
2018-12-12T21:34:37.257Z,1.60
2018-12-12T21:37:06.050Z,1.60
2018-12-12T21:39:36.825Z,1.60
2018-12-12T21:42:05.414Z,1.50
2018-12-12T21:44:34.815Z,1.50
2018-12-12T21:47:03.335Z,1.50
2018-12-12T21:49:32.474Z,1.50
2018-12-12T21:52:00.978Z,1.50
2018-12-12T21:54:30.083Z,1.40
2018-12-12T21:56:58.678Z,1.50
2018-12-12T21:59:27.178Z,1.40
2018-12-12T22:01:56.446Z,1.40
2018-12-12T22:04:25.182Z,1.40
2018-12-12T22:06:53.766Z,1.30
2018-12-12T22:09:22.610Z,1.40
2018-12-12T22:11:51.163Z,1.30
2018-12-12T22:14:19.782Z,1.30
2018-12-12T22:16:48.660Z,1.30
2018-12-12T22:19:17.173Z,1.30
2018-12-12T22:21:45.664Z,1.30
2018-12-12T22:24:14.118Z,1.30
2018-12-12T22:26:42.594Z,1.30
2018-12-12T22:29:11.144Z,1.30
2018-12-12T22:31:39.571Z,1.40
2018-12-12T22:34:08.000Z,1.20
2018-12-12T22:36:36.450Z,0.90
2018-12-12T22:39:07.576Z,0.70
2018-12-12T22:41:36.138Z,0.50
2018-12-12T22:44:04.568Z,0.30
2018-12-12T22:46:33.061Z,0.20
2018-12-12T22:49:01.506Z,0.10
2018-12-12T22:51:29.937Z,0.10
2018-12-12T22:53:58.372Z,0.00
2018-12-12T22:56:26.814Z,0.10
2018-12-12T22:58:55.232Z,0.00
2018-12-12T23:01:25.212Z,0.00
2018-12-12T23:03:53.651Z,0.00
2018-12-12T23:06:22.193Z,-0.10
2018-12-12T23:08:50.679Z,-0.10
2018-12-12T23:11:19.122Z,-0.10
2018-12-12T23:13:47.529Z,-0.10
2018-12-12T23:16:15.936Z,-0.10
2018-12-12T23:18:44.341Z,-0.10
2018-12-12T23:21:12.805Z,-0.10
2018-12-12T23:23:41.207Z,-0.10
2018-12-12T23:26:09.616Z,-0.10
2018-12-12T23:28:38.031Z,-0.10
2018-12-12T23:31:06.461Z,0.00
2018-12-12T23:33:34.998Z,0.00
2018-12-12T23:36:03.437Z,0.00
2018-12-12T23:38:31.808Z,0.00
2018-12-12T23:41:00.205Z,0.00
2018-12-12T23:43:28.624Z,0.00
2018-12-12T23:45:57.139Z,0.00
2018-12-12T23:48:25.545Z,0.00
2018-12-12T23:50:53.936Z,0.00
2018-12-12T23:53:22.355Z,0.00
2018-12-12T23:55:50.761Z,0.00
2018-12-12T23:58:19.146Z,0.00
